sensor_id;sensor_type;location;lat;lon;timestamp;P1;durP1;ratioP1;P2;durP2;ratioP2
77563;SDS011;66703;48.076;9.220;2023-07-31T00:02:20;3.95;;;3.55;;
77563;SDS011;66703;48.076;9.220;2023-07-31T00:04:45;4.38;;;3.45;;
77563;SDS011;66703;48.076;9.220;2023-07-31T00:07:11;4.20;;;3.17;;
77563;SDS011;66703;48.076;9.220;2023-07-31T00:09:39;4.18;;;3.80;;
77563;SDS011;66703;48.076;9.220;2023-07-31T00:12:05;3.92;;;3.47;;
77563;SDS011;66703;48.076;9.220;2023-07-31T00:14:34;4.10;;;3.30;;
77563;SDS011;66703;48.076;9.220;2023-07-31T00:17:06;4.57;;;4.28;;
77563;SDS011;66703;48.076;9.220;2023-07-31T00:19:31;3.50;;;3.17;;
77563;SDS011;66703;48.076;9.220;2023-07-31T00:22:00;3.83;;;3.60;;
77563;SDS011;66703;48.076;9.220;2023-07-31T00:24:28;4.00;;;3.60;;
77563;SDS011;66703;48.076;9.220;2023-07-31T00:26:54;4.70;;;3.30;;
77563;SDS011;66703;48.076;9.220;2023-07-31T00:29:20;4.40;;;3.97;;
77563;SDS011;66703;48.076;9.220;2023-07-31T00:31:46;3.55;;;3.25;;
77563;SDS011;66703;48.076;9.220;2023-07-31T00:34:12;3.60;;;3.22;;
77563;SDS011;66703;48.076;9.220;2023-07-31T00:36:40;3.35;;;3.00;;
77563;SDS011;66703;48.076;9.220;2023-07-31T00:39:08;4.38;;;3.45;;
77563;SDS011;66703;48.076;9.220;2023-07-31T00:41:39;3.60;;;3.30;;
77563;SDS011;66703;48.076;9.220;2023-07-31T00:44:15;4.32;;;3.17;;
77563;SDS011;66703;48.076;9.220;2023-07-31T00:46:44;4.65;;;3.83;;
77563;SDS011;66703;48.076;9.220;2023-07-31T00:49:09;3.50;;;3.20;;
77563;SDS011;66703;48.076;9.220;2023-07-31T00:51:39;4.10;;;3.70;;
77563;SDS011;66703;48.076;9.220;2023-07-31T00:54:09;4.55;;;3.65;;
77563;SDS011;66703;48.076;9.220;2023-07-31T00:56:38;4.45;;;3.42;;
77563;SDS011;66703;48.076;9.220;2023-07-31T00:59:09;3.65;;;3.33;;
77563;SDS011;66703;48.076;9.220;2023-07-31T01:01:35;3.35;;;3.05;;
77563;SDS011;66703;48.076;9.220;2023-07-31T01:04:01;4.75;;;3.88;;
77563;SDS011;66703;48.076;9.220;2023-07-31T01:09:20;5.78;;;4.05;;
77563;SDS011;66703;48.076;9.220;2023-07-31T01:12:01;5.13;;;4.70;;
77563;SDS011;66703;48.076;9.220;2023-07-31T01:14:35;5.53;;;4.15;;
77563;SDS011;66703;48.076;9.220;2023-07-31T01:17:04;5.20;;;4.80;;
77563;SDS011;66703;48.076;9.220;2023-07-31T01:19:33;4.72;;;4.32;;
77563;SDS011;66703;48.076;9.220;2023-07-31T01:22:04;3.78;;;3.45;;
77563;SDS011;66703;48.076;9.220;2023-07-31T01:30:34;4.30;;;4.00;;
77563;SDS011;66703;48.076;9.220;2023-07-31T01:33:04;4.22;;;3.83;;
77563;SDS011;66703;48.076;9.220;2023-07-31T01:35:35;3.95;;;3.58;;
77563;SDS011;66703;48.076;9.220;2023-07-31T01:38:04;5.20;;;4.03;;
77563;SDS011;66703;48.076;9.220;2023-07-31T01:40:31;5.20;;;4.32;;
77563;SDS011;66703;48.076;9.220;2023-07-31T01:42:59;4.25;;;3.85;;
77563;SDS011;66703;48.076;9.220;2023-07-31T01:45:28;6.32;;;4.30;;
77563;SDS011;66703;48.076;9.220;2023-07-31T01:47:58;3.92;;;3.58;;
77563;SDS011;66703;48.076;9.220;2023-07-31T01:50:29;4.65;;;4.32;;
77563;SDS011;66703;48.076;9.220;2023-07-31T01:52:55;5.15;;;3.85;;
77563;SDS011;66703;48.076;9.220;2023-07-31T01:55:21;4.00;;;3.70;;
77563;SDS011;66703;48.076;9.220;2023-07-31T01:57:49;3.88;;;3.58;;
77563;SDS011;66703;48.076;9.220;2023-07-31T02:00:15;6.75;;;4.80;;
77563;SDS011;66703;48.076;9.220;2023-07-31T02:02:44;6.22;;;4.68;;
77563;SDS011;66703;48.076;9.220;2023-07-31T02:05:15;4.43;;;4.03;;
77563;SDS011;66703;48.076;9.220;2023-07-31T02:07:41;4.45;;;4.05;;
77563;SDS011;66703;48.076;9.220;2023-07-31T02:10:10;5.07;;;4.57;;
77563;SDS011;66703;48.076;9.220;2023-07-31T02:12:39;4.85;;;4.30;;
77563;SDS011;66703;48.076;9.220;2023-07-31T02:15:09;4.45;;;4.15;;
77563;SDS011;66703;48.076;9.220;2023-07-31T02:17:40;4.97;;;4.45;;
77563;SDS011;66703;48.076;9.220;2023-07-31T02:20:06;3.90;;;3.60;;
77563;SDS011;66703;48.076;9.220;2023-07-31T02:22:37;4.50;;;4.10;;
77563;SDS011;66703;48.076;9.220;2023-07-31T02:25:08;4.13;;;3.47;;
77563;SDS011;66703;48.076;9.220;2023-07-31T02:27:39;3.97;;;3.67;;
77563;SDS011;66703;48.076;9.220;2023-07-31T02:30:14;5.10;;;4.18;;
77563;SDS011;66703;48.076;9.220;2023-07-31T02:32:43;4.53;;;4.15;;
77563;SDS011;66703;48.076;9.220;2023-07-31T02:35:11;5.22;;;4.82;;
77563;SDS011;66703;48.076;9.220;2023-07-31T02:37:42;5.13;;;3.45;;
77563;SDS011;66703;48.076;9.220;2023-07-31T02:40:10;5.18;;;4.68;;
77563;SDS011;66703;48.076;9.220;2023-07-31T02:42:47;4.50;;;4.10;;
77563;SDS011;66703;48.076;9.220;2023-07-31T02:45:20;4.45;;;4.05;;
77563;SDS011;66703;48.076;9.220;2023-07-31T02:47:51;5.22;;;4.63;;
77563;SDS011;66703;48.076;9.220;2023-07-31T02:50:19;4.28;;;3.88;;
77563;SDS011;66703;48.076;9.220;2023-07-31T02:52:51;4.68;;;4.28;;
77563;SDS011;66703;48.076;9.220;2023-07-31T02:55:25;5.93;;;4.07;;
77563;SDS011;66703;48.076;9.220;2023-07-31T02:57:53;4.53;;;4.13;;
77563;SDS011;66703;48.076;9.220;2023-07-31T03:00:19;5.03;;;4.18;;
77563;SDS011;66703;48.076;9.220;2023-07-31T03:02:45;4.25;;;3.85;;
77563;SDS011;66703;48.076;9.220;2023-07-31T03:05:11;4.38;;;3.97;;
77563;SDS011;66703;48.076;9.220;2023-07-31T03:07:41;4.60;;;3.65;;
77563;SDS011;66703;48.076;9.220;2023-07-31T03:10:07;6.20;;;4.10;;
77563;SDS011;66703;48.076;9.220;2023-07-31T03:12:33;4.28;;;3.97;;
77563;SDS011;66703;48.076;9.220;2023-07-31T03:15:01;4.82;;;4.43;;
77563;SDS011;66703;48.076;9.220;2023-07-31T03:17:27;5.82;;;4.22;;
77563;SDS011;66703;48.076;9.220;2023-07-31T03:19:53;3.92;;;3.63;;
77563;SDS011;66703;48.076;9.220;2023-07-31T03:22:22;4.78;;;4.35;;
77563;SDS011;66703;48.076;9.220;2023-07-31T03:24:48;5.18;;;3.97;;
77563;SDS011;66703;48.076;9.220;2023-07-31T03:27:14;5.82;;;5.32;;
77563;SDS011;66703;48.076;9.220;2023-07-31T03:29:40;4.55;;;4.15;;
77563;SDS011;66703;48.076;9.220;2023-07-31T03:32:09;5.63;;;4.00;;
77563;SDS011;66703;48.076;9.220;2023-07-31T03:34:37;5.97;;;3.88;;
77563;SDS011;66703;48.076;9.220;2023-07-31T03:37:02;3.65;;;3.00;;
77563;SDS011;66703;48.076;9.220;2023-07-31T03:39:30;4.38;;;3.78;;
77563;SDS011;66703;48.076;9.220;2023-07-31T03:42:02;5.72;;;3.55;;
77563;SDS011;66703;48.076;9.220;2023-07-31T03:44:31;5.82;;;3.83;;
77563;SDS011;66703;48.076;9.220;2023-07-31T03:46:59;4.00;;;3.60;;
77563;SDS011;66703;48.076;9.220;2023-07-31T03:49:25;4.57;;;4.18;;
77563;SDS011;66703;48.076;9.220;2023-07-31T03:51:53;5.80;;;4.28;;
77563;SDS011;66703;48.076;9.220;2023-07-31T03:54:22;4.57;;;3.30;;
77563;SDS011;66703;48.076;9.220;2023-07-31T03:56:47;4.13;;;3.72;;
77563;SDS011;66703;48.076;9.220;2023-07-31T03:59:13;5.57;;;5.07;;
77563;SDS011;66703;48.076;9.220;2023-07-31T04:01:42;3.80;;;3.28;;
77563;SDS011;66703;48.076;9.220;2023-07-31T04:04:08;6.40;;;4.30;;
77563;SDS011;66703;48.076;9.220;2023-07-31T04:06:37;6.60;;;4.60;;
77563;SDS011;66703;48.076;9.220;2023-07-31T04:09:03;4.43;;;4.10;;
77563;SDS011;66703;48.076;9.220;2023-07-31T04:11:36;6.45;;;5.95;;
77563;SDS011;66703;48.076;9.220;2023-07-31T04:16:30;5.20;;;3.53;;
77563;SDS011;66703;48.076;9.220;2023-07-31T04:18:56;3.55;;;3.17;;
77563;SDS011;66703;48.076;9.220;2023-07-31T04:21:22;4.07;;;3.67;;
77563;SDS011;66703;48.076;9.220;2023-07-31T04:23:48;3.65;;;3.35;;
77563;SDS011;66703;48.076;9.220;2023-07-31T04:26:14;4.57;;;4.22;;
77563;SDS011;66703;48.076;9.220;2023-07-31T04:28:42;7.18;;;5.43;;
77563;SDS011;66703;48.076;9.220;2023-07-31T04:31:13;4.40;;;4.10;;
77563;SDS011;66703;48.076;9.220;2023-07-31T04:33:42;4.85;;;3.75;;
77563;SDS011;66703;48.076;9.220;2023-07-31T04:36:11;4.55;;;4.15;;
77563;SDS011;66703;48.076;9.220;2023-07-31T04:38:37;3.95;;;3.47;;
77563;SDS011;66703;48.076;9.220;2023-07-31T04:41:08;4.97;;;4.30;;
77563;SDS011;66703;48.076;9.220;2023-07-31T04:43:34;5.85;;;5.35;;
77563;SDS011;66703;48.076;9.220;2023-07-31T04:46:03;4.53;;;4.05;;
77563;SDS011;66703;48.076;9.220;2023-07-31T04:48:29;4.53;;;4.13;;
77563;SDS011;66703;48.076;9.220;2023-07-31T04:50:59;4.95;;;4.25;;
77563;SDS011;66703;48.076;9.220;2023-07-31T04:53:37;4.35;;;4.05;;
77563;SDS011;66703;48.076;9.220;2023-07-31T04:56:11;4.13;;;3.83;;
77563;SDS011;66703;48.076;9.220;2023-07-31T04:58:46;4.15;;;3.85;;
77563;SDS011;66703;48.076;9.220;2023-07-31T05:01:17;5.03;;;3.97;;
77563;SDS011;66703;48.076;9.220;2023-07-31T05:03:45;5.05;;;4.55;;
77563;SDS011;66703;48.076;9.220;2023-07-31T05:08:58;4.00;;;3.63;;
77563;SDS011;66703;48.076;9.220;2023-07-31T05:11:31;5.03;;;4.53;;
77563;SDS011;66703;48.076;9.220;2023-07-31T05:14:00;5.10;;;4.25;;
77563;SDS011;66703;48.076;9.220;2023-07-31T05:16:25;6.10;;;4.10;;
77563;SDS011;66703;48.076;9.220;2023-07-31T05:18:53;5.32;;;4.75;;
77563;SDS011;66703;48.076;9.220;2023-07-31T05:21:25;4.85;;;4.15;;
77563;SDS011;66703;48.076;9.220;2023-07-31T05:23:53;4.78;;;4.18;;
77563;SDS011;66703;48.076;9.220;2023-07-31T05:26:24;4.80;;;4.30;;
77563;SDS011;66703;48.076;9.220;2023-07-31T05:28:53;5.20;;;4.18;;
77563;SDS011;66703;48.076;9.220;2023-07-31T05:31:19;4.82;;;4.40;;
77563;SDS011;66703;48.076;9.220;2023-07-31T05:33:50;4.88;;;4.47;;
77563;SDS011;66703;48.076;9.220;2023-07-31T05:36:16;6.30;;;4.40;;
77563;SDS011;66703;48.076;9.220;2023-07-31T05:38:47;6.57;;;4.97;;
77563;SDS011;66703;48.076;9.220;2023-07-31T05:41:20;5.25;;;4.20;;
77563;SDS011;66703;48.076;9.220;2023-07-31T05:43:48;5.53;;;4.03;;
77563;SDS011;66703;48.076;9.220;2023-07-31T05:46:19;4.45;;;4.05;;
77563;SDS011;66703;48.076;9.220;2023-07-31T05:48:50;5.18;;;4.13;;
77563;SDS011;66703;48.076;9.220;2023-07-31T05:51:18;5.72;;;4.18;;
77563;SDS011;66703;48.076;9.220;2023-07-31T05:53:46;5.25;;;4.75;;
77563;SDS011;66703;48.076;9.220;2023-07-31T05:56:14;5.97;;;4.07;;
77563;SDS011;66703;48.076;9.220;2023-07-31T05:58:40;4.75;;;3.85;;
77563;SDS011;66703;48.076;9.220;2023-07-31T06:01:06;6.47;;;5.28;;
77563;SDS011;66703;48.076;9.220;2023-07-31T06:03:31;6.65;;;3.80;;
77563;SDS011;66703;48.076;9.220;2023-07-31T06:05:57;5.72;;;5.32;;
77563;SDS011;66703;48.076;9.220;2023-07-31T06:08:25;4.90;;;4.38;;
77563;SDS011;66703;48.076;9.220;2023-07-31T06:10:54;4.53;;;4.13;;
77563;SDS011;66703;48.076;9.220;2023-07-31T06:13:20;4.85;;;4.05;;
77563;SDS011;66703;48.076;9.220;2023-07-31T06:15:48;5.03;;;4.53;;
77563;SDS011;66703;48.076;9.220;2023-07-31T06:18:17;7.60;;;4.70;;
77563;SDS011;66703;48.076;9.220;2023-07-31T06:20:46;5.43;;;4.40;;
77563;SDS011;66703;48.076;9.220;2023-07-31T06:23:15;4.40;;;3.50;;
77563;SDS011;66703;48.076;9.220;2023-07-31T06:25:48;3.78;;;3.38;;
77563;SDS011;66703;48.076;9.220;2023-07-31T06:28:16;4.15;;;3.55;;
77563;SDS011;66703;48.076;9.220;2023-07-31T06:30:42;4.88;;;3.85;;
77563;SDS011;66703;48.076;9.220;2023-07-31T06:33:10;5.68;;;3.45;;
77563;SDS011;66703;48.076;9.220;2023-07-31T06:35:39;4.97;;;3.65;;
77563;SDS011;66703;48.076;9.220;2023-07-31T06:38:07;5.40;;;3.15;;
77563;SDS011;66703;48.076;9.220;2023-07-31T06:40:35;5.40;;;3.65;;
77563;SDS011;66703;48.076;9.220;2023-07-31T06:43:05;4.30;;;3.85;;
77563;SDS011;66703;48.076;9.220;2023-07-31T06:45:39;6.80;;;4.03;;
77563;SDS011;66703;48.076;9.220;2023-07-31T06:48:05;4.35;;;3.65;;
77563;SDS011;66703;48.076;9.220;2023-07-31T06:50:35;5.97;;;4.18;;
77563;SDS011;66703;48.076;9.220;2023-07-31T06:53:02;5.93;;;4.55;;
77563;SDS011;66703;48.076;9.220;2023-07-31T06:55:30;4.72;;;4.32;;
77563;SDS011;66703;48.076;9.220;2023-07-31T06:57:58;4.40;;;3.92;;
77563;SDS011;66703;48.076;9.220;2023-07-31T07:00:29;3.60;;;3.30;;
77563;SDS011;66703;48.076;9.220;2023-07-31T07:03:00;4.57;;;3.58;;
77563;SDS011;66703;48.076;9.220;2023-07-31T07:05:25;6.38;;;4.05;;
77563;SDS011;66703;48.076;9.220;2023-07-31T07:07:51;4.13;;;3.10;;
77563;SDS011;66703;48.076;9.220;2023-07-31T07:10:17;4.28;;;3.88;;
77563;SDS011;66703;48.076;9.220;2023-07-31T07:12:52;4.15;;;3.47;;
77563;SDS011;66703;48.076;9.220;2023-07-31T07:15:20;5.55;;;4.03;;
77563;SDS011;66703;48.076;9.220;2023-07-31T07:17:46;3.50;;;3.00;;
77563;SDS011;66703;48.076;9.220;2023-07-31T07:20:17;7.18;;;3.80;;
77563;SDS011;66703;48.076;9.220;2023-07-31T07:22:47;6.20;;;3.72;;
77563;SDS011;66703;48.076;9.220;2023-07-31T07:25:21;6.20;;;3.10;;
77563;SDS011;66703;48.076;9.220;2023-07-31T07:27:56;6.60;;;3.03;;
77563;SDS011;66703;48.076;9.220;2023-07-31T07:30:21;5.03;;;2.95;;
77563;SDS011;66703;48.076;9.220;2023-07-31T07:32:50;3.65;;;3.22;;
77563;SDS011;66703;48.076;9.220;2023-07-31T07:35:27;6.60;;;3.55;;
77563;SDS011;66703;48.076;9.220;2023-07-31T07:38:00;6.60;;;3.35;;
77563;SDS011;66703;48.076;9.220;2023-07-31T07:43:03;4.07;;;2.97;;
77563;SDS011;66703;48.076;9.220;2023-07-31T07:45:35;6.25;;;3.30;;
77563;SDS011;66703;48.076;9.220;2023-07-31T07:48:03;4.88;;;3.50;;
77563;SDS011;66703;48.076;9.220;2023-07-31T07:50:34;3.83;;;2.72;;
77563;SDS011;66703;48.076;9.220;2023-07-31T07:53:07;7.78;;;3.45;;
77563;SDS011;66703;48.076;9.220;2023-07-31T07:55:35;5.18;;;2.97;;
77563;SDS011;66703;48.076;9.220;2023-07-31T07:58:03;2.78;;;2.50;;
77563;SDS011;66703;48.076;9.220;2023-07-31T08:00:31;4.25;;;3.03;;
77563;SDS011;66703;48.076;9.220;2023-07-31T08:02:59;3.78;;;2.70;;
77563;SDS011;66703;48.076;9.220;2023-07-31T08:05:25;4.18;;;2.72;;
77563;SDS011;66703;48.076;9.220;2023-07-31T08:07:51;3.35;;;2.42;;
77563;SDS011;66703;48.076;9.220;2023-07-31T08:10:21;5.68;;;3.63;;
77563;SDS011;66703;48.076;9.220;2023-07-31T08:12:49;3.58;;;2.90;;
77563;SDS011;66703;48.076;9.220;2023-07-31T08:15:17;4.57;;;2.78;;
77563;SDS011;66703;48.076;9.220;2023-07-31T08:17:48;3.72;;;3.08;;
77563;SDS011;66703;48.076;9.220;2023-07-31T08:20:17;4.72;;;3.25;;
77563;SDS011;66703;48.076;9.220;2023-07-31T08:22:45;3.58;;;3.05;;
77563;SDS011;66703;48.076;9.220;2023-07-31T08:25:18;5.07;;;3.22;;
77563;SDS011;66703;48.076;9.220;2023-07-31T08:27:51;5.53;;;3.00;;
77563;SDS011;66703;48.076;9.220;2023-07-31T08:30:22;2.85;;;2.50;;
77563;SDS011;66703;48.076;9.220;2023-07-31T08:32:51;6.00;;;3.05;;
77563;SDS011;66703;48.076;9.220;2023-07-31T08:35:16;3.80;;;2.72;;
77563;SDS011;66703;48.076;9.220;2023-07-31T08:37:44;4.07;;;3.10;;
77563;SDS011;66703;48.076;9.220;2023-07-31T08:40:15;2.60;;;2.40;;
77563;SDS011;66703;48.076;9.220;2023-07-31T08:42:48;4.75;;;3.03;;
77563;SDS011;66703;48.076;9.220;2023-07-31T08:45:34;3.92;;;3.28;;
77563;SDS011;66703;48.076;9.220;2023-07-31T08:48:06;3.70;;;3.08;;
77563;SDS011;66703;48.076;9.220;2023-07-31T08:50:31;3.40;;;3.00;;
77563;SDS011;66703;48.076;9.220;2023-07-31T08:53:02;3.15;;;2.85;;
77563;SDS011;66703;48.076;9.220;2023-07-31T08:55:33;4.68;;;2.40;;
77563;SDS011;66703;48.076;9.220;2023-07-31T08:58:02;3.17;;;2.60;;
77563;SDS011;66703;48.076;9.220;2023-07-31T09:00:28;6.38;;;3.67;;
77563;SDS011;66703;48.076;9.220;2023-07-31T09:03:07;5.63;;;3.03;;
77563;SDS011;66703;48.076;9.220;2023-07-31T09:05:36;6.78;;;3.25;;
77563;SDS011;66703;48.076;9.220;2023-07-31T09:08:09;3.90;;;2.78;;
77563;SDS011;66703;48.076;9.220;2023-07-31T09:10:41;6.07;;;3.28;;
77563;SDS011;66703;48.076;9.220;2023-07-31T09:13:08;2.90;;;2.33;;
77563;SDS011;66703;48.076;9.220;2023-07-31T09:15:39;4.88;;;2.67;;
77563;SDS011;66703;48.076;9.220;2023-07-31T09:18:06;3.45;;;2.95;;
77563;SDS011;66703;48.076;9.220;2023-07-31T09:20:37;4.47;;;3.03;;
77563;SDS011;66703;48.076;9.220;2023-07-31T09:23:09;3.90;;;2.40;;
77563;SDS011;66703;48.076;9.220;2023-07-31T09:25:40;6.60;;;2.45;;
77563;SDS011;66703;48.076;9.220;2023-07-31T09:28:11;4.05;;;2.40;;
77563;SDS011;66703;48.076;9.220;2023-07-31T09:30:56;5.60;;;2.65;;
77563;SDS011;66703;48.076;9.220;2023-07-31T09:33:25;3.08;;;2.33;;
77563;SDS011;66703;48.076;9.220;2023-07-31T09:35:59;4.45;;;2.55;;
77563;SDS011;66703;48.076;9.220;2023-07-31T09:38:35;4.47;;;2.40;;
77563;SDS011;66703;48.076;9.220;2023-07-31T09:41:12;4.75;;;2.72;;
77563;SDS011;66703;48.076;9.220;2023-07-31T09:43:40;4.07;;;2.67;;
77563;SDS011;66703;48.076;9.220;2023-07-31T09:46:13;6.50;;;3.13;;
77563;SDS011;66703;48.076;9.220;2023-07-31T09:48:39;3.65;;;2.72;;
77563;SDS011;66703;48.076;9.220;2023-07-31T09:51:26;3.83;;;2.85;;
77563;SDS011;66703;48.076;9.220;2023-07-31T09:53:52;5.75;;;3.20;;
77563;SDS011;66703;48.076;9.220;2023-07-31T09:56:20;7.90;;;3.00;;
77563;SDS011;66703;48.076;9.220;2023-07-31T09:58:49;3.45;;;2.50;;
77563;SDS011;66703;48.076;9.220;2023-07-31T10:01:20;5.85;;;2.80;;
77563;SDS011;66703;48.076;9.220;2023-07-31T10:03:46;4.05;;;2.83;;
77563;SDS011;66703;48.076;9.220;2023-07-31T10:06:11;2.83;;;2.30;;
77563;SDS011;66703;48.076;9.220;2023-07-31T10:11:09;2.60;;;2.40;;
77563;SDS011;66703;48.076;9.220;2023-07-31T10:13:42;4.80;;;2.45;;
77563;SDS011;66703;48.076;9.220;2023-07-31T10:16:14;4.80;;;2.10;;
77563;SDS011;66703;48.076;9.220;2023-07-31T10:18:44;5.90;;;2.53;;
77563;SDS011;66703;48.076;9.220;2023-07-31T10:21:12;3.90;;;2.55;;
77563;SDS011;66703;48.076;9.220;2023-07-31T10:23:40;3.78;;;2.40;;
77563;SDS011;66703;48.076;9.220;2023-07-31T10:26:07;4.00;;;2.60;;
77563;SDS011;66703;48.076;9.220;2023-07-31T10:28:33;6.38;;;2.30;;
77563;SDS011;66703;48.076;9.220;2023-07-31T10:31:01;2.58;;;2.08;;
77563;SDS011;66703;48.076;9.220;2023-07-31T10:33:27;4.93;;;2.72;;
77563;SDS011;66703;48.076;9.220;2023-07-31T10:38:55;3.28;;;2.28;;
77563;SDS011;66703;48.076;9.220;2023-07-31T10:41:32;3.88;;;2.10;;
77563;SDS011;66703;48.076;9.220;2023-07-31T10:44:06;3.15;;;2.10;;
77563;SDS011;66703;48.076;9.220;2023-07-31T10:46:46;5.45;;;2.50;;
77563;SDS011;66703;48.076;9.220;2023-07-31T10:49:20;3.97;;;2.10;;
77563;SDS011;66703;48.076;9.220;2023-07-31T10:51:54;3.83;;;2.22;;
77563;SDS011;66703;48.076;9.220;2023-07-31T10:59:34;3.30;;;2.10;;
77563;SDS011;66703;48.076;9.220;2023-07-31T11:02:00;4.47;;;2.33;;
77563;SDS011;66703;48.076;9.220;2023-07-31T11:04:29;5.50;;;2.90;;
77563;SDS011;66703;48.076;9.220;2023-07-31T11:07:00;7.60;;;2.25;;
77563;SDS011;66703;48.076;9.220;2023-07-31T11:09:33;3.63;;;2.20;;
77563;SDS011;66703;48.076;9.220;2023-07-31T11:12:01;2.50;;;1.90;;
77563;SDS011;66703;48.076;9.220;2023-07-31T11:14:31;5.13;;;2.45;;
77563;SDS011;66703;48.076;9.220;2023-07-31T11:16:57;2.83;;;2.50;;
77563;SDS011;66703;48.076;9.220;2023-07-31T11:19:25;3.70;;;2.15;;
77563;SDS011;66703;48.076;9.220;2023-07-31T11:21:54;3.28;;;2.15;;
77563;SDS011;66703;48.076;9.220;2023-07-31T11:24:32;3.20;;;2.15;;
77563;SDS011;66703;48.076;9.220;2023-07-31T11:27:07;4.22;;;2.80;;
77563;SDS011;66703;48.076;9.220;2023-07-31T11:29:35;4.25;;;2.42;;
77563;SDS011;66703;48.076;9.220;2023-07-31T11:32:01;4.00;;;2.42;;
77563;SDS011;66703;48.076;9.220;2023-07-31T11:34:33;2.92;;;2.17;;
77563;SDS011;66703;48.076;9.220;2023-07-31T11:37:04;3.95;;;2.25;;
77563;SDS011;66703;48.076;9.220;2023-07-31T11:39:30;4.35;;;2.35;;
77563;SDS011;66703;48.076;9.220;2023-07-31T11:42:01;3.80;;;2.40;;
77563;SDS011;66703;48.076;9.220;2023-07-31T11:44:36;5.03;;;2.70;;
77563;SDS011;66703;48.076;9.220;2023-07-31T11:47:13;3.05;;;2.45;;
77563;SDS011;66703;48.076;9.220;2023-07-31T11:49:48;3.72;;;2.58;;
77563;SDS011;66703;48.076;9.220;2023-07-31T11:52:16;3.58;;;2.78;;
77563;SDS011;66703;48.076;9.220;2023-07-31T11:54:46;6.40;;;2.60;;
77563;SDS011;66703;48.076;9.220;2023-07-31T11:57:16;3.88;;;2.50;;
77563;SDS011;66703;48.076;9.220;2023-07-31T11:59:49;3.38;;;2.30;;
77563;SDS011;66703;48.076;9.220;2023-07-31T12:02:18;4.15;;;2.80;;
77563;SDS011;66703;48.076;9.220;2023-07-31T12:04:48;5.28;;;2.55;;
77563;SDS011;66703;48.076;9.220;2023-07-31T12:07:20;3.97;;;2.70;;
77563;SDS011;66703;48.076;9.220;2023-07-31T12:09:52;4.55;;;2.72;;
77563;SDS011;66703;48.076;9.220;2023-07-31T12:12:24;3.88;;;2.33;;
77563;SDS011;66703;48.076;9.220;2023-07-31T12:14:55;4.00;;;2.40;;
77563;SDS011;66703;48.076;9.220;2023-07-31T12:17:21;5.18;;;2.17;;
77563;SDS011;66703;48.076;9.220;2023-07-31T12:19:48;3.20;;;2.40;;
77563;SDS011;66703;48.076;9.220;2023-07-31T12:22:16;3.97;;;2.58;;
77563;SDS011;66703;48.076;9.220;2023-07-31T12:24:47;3.88;;;2.95;;
77563;SDS011;66703;48.076;9.220;2023-07-31T12:27:18;4.93;;;2.80;;
77563;SDS011;66703;48.076;9.220;2023-07-31T12:29:47;4.45;;;2.42;;
77563;SDS011;66703;48.076;9.220;2023-07-31T12:32:25;5.38;;;2.20;;
77563;SDS011;66703;48.076;9.220;2023-07-31T12:34:53;5.88;;;2.38;;
77563;SDS011;66703;48.076;9.220;2023-07-31T12:37:42;5.00;;;2.55;;
77563;SDS011;66703;48.076;9.220;2023-07-31T12:40:08;3.58;;;2.55;;
77563;SDS011;66703;48.076;9.220;2023-07-31T12:42:52;3.67;;;2.47;;
77563;SDS011;66703;48.076;9.220;2023-07-31T12:45:31;3.70;;;2.17;;
77563;SDS011;66703;48.076;9.220;2023-07-31T12:47:57;4.10;;;2.75;;
77563;SDS011;66703;48.076;9.220;2023-07-31T12:50:25;4.28;;;2.42;;
77563;SDS011;66703;48.076;9.220;2023-07-31T12:52:53;3.20;;;2.40;;
77563;SDS011;66703;48.076;9.220;2023-07-31T12:55:22;2.97;;;2.50;;
77563;SDS011;66703;48.076;9.220;2023-07-31T12:57:50;3.97;;;2.58;;
77563;SDS011;66703;48.076;9.220;2023-07-31T13:00:19;3.63;;;2.63;;
77563;SDS011;66703;48.076;9.220;2023-07-31T13:02:47;5.05;;;2.88;;
77563;SDS011;66703;48.076;9.220;2023-07-31T13:05:13;5.10;;;2.80;;
77563;SDS011;66703;48.076;9.220;2023-07-31T13:07:39;4.50;;;2.90;;
77563;SDS011;66703;48.076;9.220;2023-07-31T13:10:10;4.57;;;2.72;;
77563;SDS011;66703;48.076;9.220;2023-07-31T13:12:39;6.05;;;2.53;;
77563;SDS011;66703;48.076;9.220;2023-07-31T13:15:06;4.75;;;2.40;;
77563;SDS011;66703;48.076;9.220;2023-07-31T13:17:35;2.90;;;2.25;;
77563;SDS011;66703;48.076;9.220;2023-07-31T13:20:08;3.67;;;2.67;;
77563;SDS011;66703;48.076;9.220;2023-07-31T13:22:44;7.47;;;2.50;;
77563;SDS011;66703;48.076;9.220;2023-07-31T13:27:43;5.00;;;2.70;;
77563;SDS011;66703;48.076;9.220;2023-07-31T13:30:14;3.53;;;2.80;;
77563;SDS011;66703;48.076;9.220;2023-07-31T13:32:42;3.30;;;2.70;;
77563;SDS011;66703;48.076;9.220;2023-07-31T13:35:16;6.22;;;2.70;;
77563;SDS011;66703;48.076;9.220;2023-07-31T13:37:51;5.40;;;3.40;;
77563;SDS011;66703;48.076;9.220;2023-07-31T13:40:22;3.78;;;3.00;;
77563;SDS011;66703;48.076;9.220;2023-07-31T13:42:50;5.10;;;2.63;;
77563;SDS011;66703;48.076;9.220;2023-07-31T13:45:22;4.10;;;2.58;;
77563;SDS011;66703;48.076;9.220;2023-07-31T13:47:49;5.55;;;2.45;;
77563;SDS011;66703;48.076;9.220;2023-07-31T13:50:17;5.25;;;2.88;;
77563;SDS011;66703;48.076;9.220;2023-07-31T13:52:46;5.35;;;2.65;;
77563;SDS011;66703;48.076;9.220;2023-07-31T13:55:17;4.97;;;2.47;;
77563;SDS011;66703;48.076;9.220;2023-07-31T13:57:50;4.85;;;2.80;;
77563;SDS011;66703;48.076;9.220;2023-07-31T14:00:18;3.17;;;2.63;;
77563;SDS011;66703;48.076;9.220;2023-07-31T14:02:44;4.45;;;2.70;;
77563;SDS011;66703;48.076;9.220;2023-07-31T14:05:20;4.75;;;2.72;;
77563;SDS011;66703;48.076;9.220;2023-07-31T14:07:50;4.93;;;2.90;;
77563;SDS011;66703;48.076;9.220;2023-07-31T14:10:16;4.07;;;2.40;;
77563;SDS011;66703;48.076;9.220;2023-07-31T14:12:45;3.65;;;2.80;;
77563;SDS011;66703;48.076;9.220;2023-07-31T14:15:10;4.55;;;2.40;;
77563;SDS011;66703;48.076;9.220;2023-07-31T14:17:41;6.38;;;2.67;;
77563;SDS011;66703;48.076;9.220;2023-07-31T14:20:07;3.95;;;2.67;;
77563;SDS011;66703;48.076;9.220;2023-07-31T14:22:33;5.13;;;3.10;;
77563;SDS011;66703;48.076;9.220;2023-07-31T14:24:59;2.97;;;2.22;;
77563;SDS011;66703;48.076;9.220;2023-07-31T14:27:25;4.18;;;2.60;;
77563;SDS011;66703;48.076;9.220;2023-07-31T14:29:53;3.58;;;2.72;;
77563;SDS011;66703;48.076;9.220;2023-07-31T14:32:19;3.58;;;2.42;;
77563;SDS011;66703;48.076;9.220;2023-07-31T14:34:46;4.07;;;2.67;;
77563;SDS011;66703;48.076;9.220;2023-07-31T14:37:11;3.65;;;2.75;;
77563;SDS011;66703;48.076;9.220;2023-07-31T14:39:37;6.57;;;2.83;;
77563;SDS011;66703;48.076;9.220;2023-07-31T14:42:03;4.72;;;2.60;;
77563;SDS011;66703;48.076;9.220;2023-07-31T14:44:31;6.15;;;3.20;;
77563;SDS011;66703;48.076;9.220;2023-07-31T14:46:59;6.60;;;3.13;;
77563;SDS011;66703;48.076;9.220;2023-07-31T14:49:25;9.48;;;3.15;;
77563;SDS011;66703;48.076;9.220;2023-07-31T14:51:53;3.78;;;2.83;;
77563;SDS011;66703;48.076;9.220;2023-07-31T14:54:20;4.63;;;3.08;;
77563;SDS011;66703;48.076;9.220;2023-07-31T14:56:48;4.78;;;3.08;;
77563;SDS011;66703;48.076;9.220;2023-07-31T14:59:13;4.50;;;2.95;;
77563;SDS011;66703;48.076;9.220;2023-07-31T15:01:40;3.85;;;2.90;;
77563;SDS011;66703;48.076;9.220;2023-07-31T15:04:10;6.78;;;2.80;;
77563;SDS011;66703;48.076;9.220;2023-07-31T15:06:43;6.05;;;3.08;;
77563;SDS011;66703;48.076;9.220;2023-07-31T15:09:09;4.53;;;2.92;;
77563;SDS011;66703;48.076;9.220;2023-07-31T15:11:37;5.90;;;3.35;;
77563;SDS011;66703;48.076;9.220;2023-07-31T15:14:03;5.70;;;2.90;;
77563;SDS011;66703;48.076;9.220;2023-07-31T15:16:29;4.10;;;2.60;;
77563;SDS011;66703;48.076;9.220;2023-07-31T15:18:56;4.28;;;2.90;;
77563;SDS011;66703;48.076;9.220;2023-07-31T15:21:29;5.05;;;3.13;;
77563;SDS011;66703;48.076;9.220;2023-07-31T15:23:55;4.35;;;2.80;;
77563;SDS011;66703;48.076;9.220;2023-07-31T15:26:23;3.53;;;3.03;;
77563;SDS011;66703;48.076;9.220;2023-07-31T15:28:50;4.43;;;2.72;;
77563;SDS011;66703;48.076;9.220;2023-07-31T15:31:24;4.95;;;2.63;;